Myrtle Point, Oregon
Current Conditions -  °F | °C
As of 12:35 AM on Friday 31 Oct 2014 (Local Time) from KOTH Reporting Station
Overcast Overcast  
Wind Chill: 54°   Ceiling: 500
Heat Index: 54°   Visibility: 4mi
Dew Point: 54°   Wind: 15mph
Humidity: 100%   Direction: 290°WNW
Pressure: 29.78"   Gusts: NA
Location:  43.06°N, 124.14°W
Report Text: KOTH 310735Z 29013KT 4SM BKN005 OVC016 12/12 A2978 RMK AO1 P0003
Loading
Personal Weather Stations






























Interactive Weather Map
Tropical Storm Tracking
New forecast layout! Learn more

10-Day Weather Forecast

Advertisements
Track Severe Weather on mobile